sensor_id;sensor_type;location;lat;lon;timestamp;P1;durP1;ratioP1;P2;durP2;ratioP2
69594;SDS011;56800;52.142;5.364;2023-04-06T00:00:13;20.90;;;12.00;;
69594;SDS011;56800;52.142;5.364;2023-04-06T00:02:44;20.30;;;11.52;;
69594;SDS011;56800;52.142;5.364;2023-04-06T00:05:14;21.85;;;11.32;;
69594;SDS011;56800;52.142;5.364;2023-04-06T00:07:41;19.67;;;10.90;;
69594;SDS011;56800;52.142;5.364;2023-04-06T00:10:08;18.50;;;11.75;;
69594;SDS011;56800;52.142;5.364;2023-04-06T00:12:35;16.77;;;10.57;;
69594;SDS011;56800;52.142;5.364;2023-04-06T00:15:02;22.63;;;11.30;;
69594;SDS011;56800;52.142;5.364;2023-04-06T00:17:32;20.27;;;11.73;;
69594;SDS011;56800;52.142;5.364;2023-04-06T00:20:00;19.80;;;10.63;;
69594;SDS011;56800;52.142;5.364;2023-04-06T00:22:27;19.92;;;11.60;;
69594;SDS011;56800;52.142;5.364;2023-04-06T00:24:54;20.50;;;10.97;;
69594;SDS011;56800;52.142;5.364;2023-04-06T00:27:26;22.25;;;11.32;;
69594;SDS011;56800;52.142;5.364;2023-04-06T00:29:53;18.60;;;11.63;;
69594;SDS011;56800;52.142;5.364;2023-04-06T00:32:20;20.45;;;10.52;;
69594;SDS011;56800;52.142;5.364;2023-04-06T00:34:47;18.95;;;11.30;;
69594;SDS011;56800;52.142;5.364;2023-04-06T00:37:19;20.83;;;10.97;;
69594;SDS011;56800;52.142;5.364;2023-04-06T00:39:48;20.08;;;11.25;;
69594;SDS011;56800;52.142;5.364;2023-04-06T00:42:21;18.92;;;10.73;;
69594;SDS011;56800;52.142;5.364;2023-04-06T00:44:56;19.15;;;9.98;;
69594;SDS011;56800;52.142;5.364;2023-04-06T00:47:28;18.77;;;10.38;;
69594;SDS011;56800;52.142;5.364;2023-04-06T00:49:57;20.77;;;10.63;;
69594;SDS011;56800;52.142;5.364;2023-04-06T00:52:33;17.52;;;9.82;;
69594;SDS011;56800;52.142;5.364;2023-04-06T00:55:03;21.20;;;10.55;;
69594;SDS011;56800;52.142;5.364;2023-04-06T00:57:31;17.33;;;10.05;;
69594;SDS011;56800;52.142;5.364;2023-04-06T00:59:58;19.02;;;10.63;;
69594;SDS011;56800;52.142;5.364;2023-04-06T01:02:27;17.50;;;10.30;;
69594;SDS011;56800;52.142;5.364;2023-04-06T01:04:55;17.33;;;9.52;;
69594;SDS011;56800;52.142;5.364;2023-04-06T01:07:22;17.80;;;10.02;;
69594;SDS011;56800;52.142;5.364;2023-04-06T01:09:52;16.55;;;9.07;;
69594;SDS011;56800;52.142;5.364;2023-04-06T01:12:20;17.42;;;10.00;;
69594;SDS011;56800;52.142;5.364;2023-04-06T01:14:47;17.97;;;9.93;;
69594;SDS011;56800;52.142;5.364;2023-04-06T01:17:14;16.80;;;9.63;;
69594;SDS011;56800;52.142;5.364;2023-04-06T01:19:42;17.85;;;9.88;;
69594;SDS011;56800;52.142;5.364;2023-04-06T01:22:17;16.67;;;9.50;;
69594;SDS011;56800;52.142;5.364;2023-04-06T01:24:44;17.17;;;9.70;;
69594;SDS011;56800;52.142;5.364;2023-04-06T01:27:11;16.27;;;9.50;;
69594;SDS011;56800;52.142;5.364;2023-04-06T01:29:39;17.23;;;8.82;;
69594;SDS011;56800;52.142;5.364;2023-04-06T01:32:09;17.27;;;9.38;;
69594;SDS011;56800;52.142;5.364;2023-04-06T01:34:36;17.02;;;9.23;;
69594;SDS011;56800;52.142;5.364;2023-04-06T01:37:03;16.48;;;9.25;;
69594;SDS011;56800;52.142;5.364;2023-04-06T01:39:30;15.77;;;8.97;;
69594;SDS011;56800;52.142;5.364;2023-04-06T01:41:58;18.98;;;8.18;;
69594;SDS011;56800;52.142;5.364;2023-04-06T01:44:25;15.90;;;9.13;;
69594;SDS011;56800;52.142;5.364;2023-04-06T01:46:52;17.13;;;8.90;;
69594;SDS011;56800;52.142;5.364;2023-04-06T01:49:19;17.45;;;9.48;;
69594;SDS011;56800;52.142;5.364;2023-04-06T01:51:47;15.80;;;8.87;;
69594;SDS011;56800;52.142;5.364;2023-04-06T01:54:13;15.18;;;8.85;;
69594;SDS011;56800;52.142;5.364;2023-04-06T01:56:40;16.55;;;9.48;;
69594;SDS011;56800;52.142;5.364;2023-04-06T01:59:07;14.48;;;8.48;;
69594;SDS011;56800;52.142;5.364;2023-04-06T02:01:35;16.27;;;8.98;;
69594;SDS011;56800;52.142;5.364;2023-04-06T02:04:02;17.07;;;9.47;;
69594;SDS011;56800;52.142;5.364;2023-04-06T02:06:28;19.65;;;9.43;;
69594;SDS011;56800;52.142;5.364;2023-04-06T02:08:56;15.63;;;9.18;;
69594;SDS011;56800;52.142;5.364;2023-04-06T02:11:23;15.88;;;8.05;;
69594;SDS011;56800;52.142;5.364;2023-04-06T02:13:50;17.70;;;8.05;;
69594;SDS011;56800;52.142;5.364;2023-04-06T02:16:19;15.90;;;8.73;;
69594;SDS011;56800;52.142;5.364;2023-04-06T02:18:46;16.58;;;8.60;;
69594;SDS011;56800;52.142;5.364;2023-04-06T02:21:12;16.40;;;8.95;;
69594;SDS011;56800;52.142;5.364;2023-04-06T02:23:39;15.75;;;8.60;;
69594;SDS011;56800;52.142;5.364;2023-04-06T02:26:07;13.98;;;8.43;;
69594;SDS011;56800;52.142;5.364;2023-04-06T02:28:34;14.80;;;8.13;;
69594;SDS011;56800;52.142;5.364;2023-04-06T02:31:00;21.10;;;8.85;;
69594;SDS011;56800;52.142;5.364;2023-04-06T02:33:27;15.43;;;9.02;;
69594;SDS011;56800;52.142;5.364;2023-04-06T02:35:54;17.52;;;8.50;;
69594;SDS011;56800;52.142;5.364;2023-04-06T02:38:21;15.32;;;7.90;;
69594;SDS011;56800;52.142;5.364;2023-04-06T02:40:48;16.83;;;8.37;;
69594;SDS011;56800;52.142;5.364;2023-04-06T02:43:15;15.45;;;8.10;;
69594;SDS011;56800;52.142;5.364;2023-04-06T02:45:43;14.98;;;8.27;;
69594;SDS011;56800;52.142;5.364;2023-04-06T02:48:10;13.23;;;7.72;;
69594;SDS011;56800;52.142;5.364;2023-04-06T02:50:37;13.10;;;7.75;;
69594;SDS011;56800;52.142;5.364;2023-04-06T02:53:04;14.13;;;7.67;;
69594;SDS011;56800;52.142;5.364;2023-04-06T02:55:31;17.95;;;8.50;;
69594;SDS011;56800;52.142;5.364;2023-04-06T02:57:57;14.38;;;8.20;;
69594;SDS011;56800;52.142;5.364;2023-04-06T03:00:24;15.75;;;8.77;;
69594;SDS011;56800;52.142;5.364;2023-04-06T03:02:51;14.57;;;7.53;;
69594;SDS011;56800;52.142;5.364;2023-04-06T03:05:18;16.37;;;7.97;;
69594;SDS011;56800;52.142;5.364;2023-04-06T03:07:45;14.20;;;7.47;;
69594;SDS011;56800;52.142;5.364;2023-04-06T03:10:12;14.20;;;7.20;;
69594;SDS011;56800;52.142;5.364;2023-04-06T03:12:39;13.55;;;7.90;;
69594;SDS011;56800;52.142;5.364;2023-04-06T03:15:07;14.55;;;7.80;;
69594;SDS011;56800;52.142;5.364;2023-04-06T03:17:35;13.33;;;7.43;;
69594;SDS011;56800;52.142;5.364;2023-04-06T03:20:02;12.15;;;7.18;;
69594;SDS011;56800;52.142;5.364;2023-04-06T03:22:30;16.98;;;7.20;;
69594;SDS011;56800;52.142;5.364;2023-04-06T03:24:56;14.77;;;7.93;;
69594;SDS011;56800;52.142;5.364;2023-04-06T03:27:24;15.77;;;8.00;;
69594;SDS011;56800;52.142;5.364;2023-04-06T03:29:51;12.23;;;7.10;;
69594;SDS011;56800;52.142;5.364;2023-04-06T03:32:17;13.65;;;7.25;;
69594;SDS011;56800;52.142;5.364;2023-04-06T03:34:44;14.02;;;7.25;;
69594;SDS011;56800;52.142;5.364;2023-04-06T03:37:11;12.40;;;6.70;;
69594;SDS011;56800;52.142;5.364;2023-04-06T03:39:38;16.40;;;7.90;;
69594;SDS011;56800;52.142;5.364;2023-04-06T03:42:05;13.03;;;7.97;;
69594;SDS011;56800;52.142;5.364;2023-04-06T03:44:32;14.02;;;8.02;;
69594;SDS011;56800;52.142;5.364;2023-04-06T03:46:59;12.73;;;8.02;;
69594;SDS011;56800;52.142;5.364;2023-04-06T03:49:26;14.52;;;7.60;;
69594;SDS011;56800;52.142;5.364;2023-04-06T03:51:55;11.90;;;7.82;;
69594;SDS011;56800;52.142;5.364;2023-04-06T03:54:23;12.37;;;7.57;;
69594;SDS011;56800;52.142;5.364;2023-04-06T03:56:49;14.85;;;7.82;;
69594;SDS011;56800;52.142;5.364;2023-04-06T03:59:16;13.40;;;7.85;;
69594;SDS011;56800;52.142;5.364;2023-04-06T04:01:43;14.70;;;7.30;;
69594;SDS011;56800;52.142;5.364;2023-04-06T04:04:11;18.65;;;7.95;;
69594;SDS011;56800;52.142;5.364;2023-04-06T04:06:38;13.70;;;8.00;;
69594;SDS011;56800;52.142;5.364;2023-04-06T04:09:05;15.82;;;8.50;;
69594;SDS011;56800;52.142;5.364;2023-04-06T04:11:32;13.38;;;7.68;;
69594;SDS011;56800;52.142;5.364;2023-04-06T04:13:59;14.10;;;7.38;;
69594;SDS011;56800;52.142;5.364;2023-04-06T04:16:26;13.82;;;7.65;;
69594;SDS011;56800;52.142;5.364;2023-04-06T04:18:53;13.97;;;8.33;;
69594;SDS011;56800;52.142;5.364;2023-04-06T04:21:20;13.93;;;7.45;;
69594;SDS011;56800;52.142;5.364;2023-04-06T04:23:47;14.70;;;7.38;;
69594;SDS011;56800;52.142;5.364;2023-04-06T04:26:16;14.88;;;7.65;;
69594;SDS011;56800;52.142;5.364;2023-04-06T04:28:43;14.13;;;7.57;;
69594;SDS011;56800;52.142;5.364;2023-04-06T04:31:10;13.63;;;7.50;;
69594;SDS011;56800;52.142;5.364;2023-04-06T04:33:37;16.85;;;7.72;;
69594;SDS011;56800;52.142;5.364;2023-04-06T04:36:04;13.95;;;7.78;;
69594;SDS011;56800;52.142;5.364;2023-04-06T04:38:31;14.40;;;7.80;;
69594;SDS011;56800;52.142;5.364;2023-04-06T04:40:58;14.52;;;8.02;;
69594;SDS011;56800;52.142;5.364;2023-04-06T04:43:25;12.53;;;7.53;;
69594;SDS011;56800;52.142;5.364;2023-04-06T04:45:54;13.90;;;7.93;;
69594;SDS011;56800;52.142;5.364;2023-04-06T04:48:21;15.82;;;7.97;;
69594;SDS011;56800;52.142;5.364;2023-04-06T04:50:48;19.00;;;8.35;;
69594;SDS011;56800;52.142;5.364;2023-04-06T04:53:14;14.85;;;8.05;;
69594;SDS011;56800;52.142;5.364;2023-04-06T04:55:41;16.03;;;8.67;;
69594;SDS011;56800;52.142;5.364;2023-04-06T04:58:08;17.70;;;8.60;;
69594;SDS011;56800;52.142;5.364;2023-04-06T05:00:37;16.42;;;8.60;;
69594;SDS011;56800;52.142;5.364;2023-04-06T05:03:04;18.55;;;8.68;;
69594;SDS011;56800;52.142;5.364;2023-04-06T05:05:31;20.23;;;9.00;;
69594;SDS011;56800;52.142;5.364;2023-04-06T05:07:58;20.50;;;9.57;;
69594;SDS011;56800;52.142;5.364;2023-04-06T05:10:25;24.10;;;9.90;;
69594;SDS011;56800;52.142;5.364;2023-04-06T05:12:52;15.98;;;8.40;;
69594;SDS011;56800;52.142;5.364;2023-04-06T05:15:19;15.43;;;8.68;;
69594;SDS011;56800;52.142;5.364;2023-04-06T05:17:46;14.30;;;8.88;;
69594;SDS011;56800;52.142;5.364;2023-04-06T05:20:13;15.37;;;9.33;;
69594;SDS011;56800;52.142;5.364;2023-04-06T05:22:40;16.10;;;9.00;;
69594;SDS011;56800;52.142;5.364;2023-04-06T05:25:07;18.15;;;8.55;;
69594;SDS011;56800;52.142;5.364;2023-04-06T05:27:34;19.63;;;9.23;;
69594;SDS011;56800;52.142;5.364;2023-04-06T05:30:01;17.48;;;10.20;;
69594;SDS011;56800;52.142;5.364;2023-04-06T05:32:28;19.07;;;9.57;;
69594;SDS011;56800;52.142;5.364;2023-04-06T05:34:55;16.95;;;9.63;;
69594;SDS011;56800;52.142;5.364;2023-04-06T05:37:22;17.02;;;8.93;;
69594;SDS011;56800;52.142;5.364;2023-04-06T05:39:49;16.98;;;9.52;;
69594;SDS011;56800;52.142;5.364;2023-04-06T05:42:16;14.98;;;9.50;;
69594;SDS011;56800;52.142;5.364;2023-04-06T05:44:43;16.50;;;9.93;;
69594;SDS011;56800;52.142;5.364;2023-04-06T05:47:10;15.43;;;9.25;;
69594;SDS011;56800;52.142;5.364;2023-04-06T05:49:37;17.15;;;10.23;;
69594;SDS011;56800;52.142;5.364;2023-04-06T05:52:04;21.52;;;9.10;;
69594;SDS011;56800;52.142;5.364;2023-04-06T05:54:33;14.70;;;9.15;;
69594;SDS011;56800;52.142;5.364;2023-04-06T05:57:01;16.80;;;9.83;;
69594;SDS011;56800;52.142;5.364;2023-04-06T05:59:32;17.05;;;10.27;;
69594;SDS011;56800;52.142;5.364;2023-04-06T06:01:59;15.20;;;9.50;;
69594;SDS011;56800;52.142;5.364;2023-04-06T06:04:27;23.02;;;11.70;;
69594;SDS011;56800;52.142;5.364;2023-04-06T06:06:57;20.55;;;11.18;;
69594;SDS011;56800;52.142;5.364;2023-04-06T06:09:25;19.47;;;10.00;;
69594;SDS011;56800;52.142;5.364;2023-04-06T06:11:52;16.67;;;9.93;;
69594;SDS011;56800;52.142;5.364;2023-04-06T06:14:23;18.85;;;11.23;;
69594;SDS011;56800;52.142;5.364;2023-04-06T06:16:53;22.77;;;11.15;;
69594;SDS011;56800;52.142;5.364;2023-04-06T06:19:20;19.58;;;11.55;;
69594;SDS011;56800;52.142;5.364;2023-04-06T06:21:50;19.00;;;10.83;;
69594;SDS011;56800;52.142;5.364;2023-04-06T06:24:18;21.00;;;11.02;;
69594;SDS011;56800;52.142;5.364;2023-04-06T06:26:45;20.88;;;11.48;;
69594;SDS011;56800;52.142;5.364;2023-04-06T06:29:15;18.38;;;10.63;;
69594;SDS011;56800;52.142;5.364;2023-04-06T06:31:42;21.73;;;12.27;;
69594;SDS011;56800;52.142;5.364;2023-04-06T06:34:09;18.00;;;11.50;;
69594;SDS011;56800;52.142;5.364;2023-04-06T06:36:36;21.55;;;11.27;;
69594;SDS011;56800;52.142;5.364;2023-04-06T06:39:04;20.08;;;11.00;;
69594;SDS011;56800;52.142;5.364;2023-04-06T06:41:34;23.40;;;12.27;;
69594;SDS011;56800;52.142;5.364;2023-04-06T06:44:07;19.65;;;11.65;;
69594;SDS011;56800;52.142;5.364;2023-04-06T06:46:39;22.50;;;11.90;;
69594;SDS011;56800;52.142;5.364;2023-04-06T06:49:06;22.50;;;11.90;;
69594;SDS011;56800;52.142;5.364;2023-04-06T06:51:38;20.42;;;12.38;;
69594;SDS011;56800;52.142;5.364;2023-04-06T06:54:10;23.80;;;12.13;;
69594;SDS011;56800;52.142;5.364;2023-04-06T06:56:38;20.58;;;11.52;;
69594;SDS011;56800;52.142;5.364;2023-04-06T06:59:05;22.20;;;11.73;;
69594;SDS011;56800;52.142;5.364;2023-04-06T07:01:33;23.88;;;12.05;;
69594;SDS011;56800;52.142;5.364;2023-04-06T07:04:09;19.60;;;12.02;;
69594;SDS011;56800;52.142;5.364;2023-04-06T07:06:39;23.27;;;12.00;;
69594;SDS011;56800;52.142;5.364;2023-04-06T07:09:06;23.85;;;11.93;;
69594;SDS011;56800;52.142;5.364;2023-04-06T07:11:37;22.03;;;12.40;;
69594;SDS011;56800;52.142;5.364;2023-04-06T07:14:10;22.65;;;12.80;;
69594;SDS011;56800;52.142;5.364;2023-04-06T07:16:47;23.70;;;12.70;;
69594;SDS011;56800;52.142;5.364;2023-04-06T07:19:17;25.77;;;13.25;;
69594;SDS011;56800;52.142;5.364;2023-04-06T07:21:50;22.05;;;12.57;;
69594;SDS011;56800;52.142;5.364;2023-04-06T07:24:24;21.60;;;12.80;;
69594;SDS011;56800;52.142;5.364;2023-04-06T07:26:52;23.70;;;12.60;;
69594;SDS011;56800;52.142;5.364;2023-04-06T07:29:20;24.55;;;13.20;;
69594;SDS011;56800;52.142;5.364;2023-04-06T07:31:52;27.73;;;12.93;;
69594;SDS011;56800;52.142;5.364;2023-04-06T07:34:20;24.80;;;13.30;;
69594;SDS011;56800;52.142;5.364;2023-04-06T07:36:47;24.43;;;12.23;;
69594;SDS011;56800;52.142;5.364;2023-04-06T07:39:19;22.73;;;12.88;;
69594;SDS011;56800;52.142;5.364;2023-04-06T07:41:47;25.50;;;14.07;;
69594;SDS011;56800;52.142;5.364;2023-04-06T07:44:17;22.50;;;13.23;;
69594;SDS011;56800;52.142;5.364;2023-04-06T07:46:47;25.25;;;13.15;;
69594;SDS011;56800;52.142;5.364;2023-04-06T07:49:14;22.90;;;13.20;;
69594;SDS011;56800;52.142;5.364;2023-04-06T07:51:43;24.48;;;13.07;;
69594;SDS011;56800;52.142;5.364;2023-04-06T07:54:14;29.65;;;14.15;;
69594;SDS011;56800;52.142;5.364;2023-04-06T07:56:41;24.13;;;13.13;;
69594;SDS011;56800;52.142;5.364;2023-04-06T07:59:08;27.17;;;13.80;;
69594;SDS011;56800;52.142;5.364;2023-04-06T08:01:37;21.53;;;12.53;;
69594;SDS011;56800;52.142;5.364;2023-04-06T08:04:10;28.30;;;14.43;;
69594;SDS011;56800;52.142;5.364;2023-04-06T08:06:40;26.02;;;13.75;;
69594;SDS011;56800;52.142;5.364;2023-04-06T08:09:18;23.52;;;13.82;;
69594;SDS011;56800;52.142;5.364;2023-04-06T08:14:39;24.53;;;13.07;;
69594;SDS011;56800;52.142;5.364;2023-04-06T08:17:09;26.42;;;14.30;;
69594;SDS011;56800;52.142;5.364;2023-04-06T08:19:45;25.13;;;13.85;;
69594;SDS011;56800;52.142;5.364;2023-04-06T08:22:13;26.17;;;13.20;;
69594;SDS011;56800;52.142;5.364;2023-04-06T08:24:47;24.73;;;14.60;;
69594;SDS011;56800;52.142;5.364;2023-04-06T08:27:14;26.60;;;13.57;;
69594;SDS011;56800;52.142;5.364;2023-04-06T08:29:42;29.40;;;15.48;;
69594;SDS011;56800;52.142;5.364;2023-04-06T08:32:12;25.38;;;14.32;;
69594;SDS011;56800;52.142;5.364;2023-04-06T08:34:41;25.83;;;13.63;;
69594;SDS011;56800;52.142;5.364;2023-04-06T08:37:08;24.88;;;14.77;;
69594;SDS011;56800;52.142;5.364;2023-04-06T08:39:39;25.10;;;14.07;;
69594;SDS011;56800;52.142;5.364;2023-04-06T08:42:15;30.15;;;15.98;;
69594;SDS011;56800;52.142;5.364;2023-04-06T08:44:48;25.95;;;15.15;;
69594;SDS011;56800;52.142;5.364;2023-04-06T08:47:19;24.02;;;14.60;;
69594;SDS011;56800;52.142;5.364;2023-04-06T08:49:50;29.13;;;15.35;;
69594;SDS011;56800;52.142;5.364;2023-04-06T08:52:20;30.03;;;15.27;;
69594;SDS011;56800;52.142;5.364;2023-04-06T08:54:48;25.30;;;14.70;;
69594;SDS011;56800;52.142;5.364;2023-04-06T08:57:20;27.60;;;16.10;;
69594;SDS011;56800;52.142;5.364;2023-04-06T08:59:48;29.60;;;15.52;;
69594;SDS011;56800;52.142;5.364;2023-04-06T09:02:20;28.35;;;16.13;;
69594;SDS011;56800;52.142;5.364;2023-04-06T09:04:48;29.93;;;16.03;;
69594;SDS011;56800;52.142;5.364;2023-04-06T09:07:23;29.40;;;16.75;;
69594;SDS011;56800;52.142;5.364;2023-04-06T09:09:51;28.27;;;15.93;;
69594;SDS011;56800;52.142;5.364;2023-04-06T09:12:21;29.00;;;16.20;;
69594;SDS011;56800;52.142;5.364;2023-04-06T09:15:00;30.00;;;16.02;;
69594;SDS011;56800;52.142;5.364;2023-04-06T09:17:31;26.10;;;15.80;;
69594;SDS011;56800;52.142;5.364;2023-04-06T09:20:00;30.42;;;16.13;;
69594;SDS011;56800;52.142;5.364;2023-04-06T09:22:35;28.10;;;16.13;;
69594;SDS011;56800;52.142;5.364;2023-04-06T09:25:08;30.02;;;16.23;;
69594;SDS011;56800;52.142;5.364;2023-04-06T09:27:36;24.40;;;15.45;;
69594;SDS011;56800;52.142;5.364;2023-04-06T09:30:07;29.37;;;16.47;;
69594;SDS011;56800;52.142;5.364;2023-04-06T09:32:48;25.42;;;15.18;;
69594;SDS011;56800;52.142;5.364;2023-04-06T09:35:20;27.50;;;16.17;;
69594;SDS011;56800;52.142;5.364;2023-04-06T09:37:50;29.35;;;15.80;;
69594;SDS011;56800;52.142;5.364;2023-04-06T09:40:23;25.38;;;15.50;;
69594;SDS011;56800;52.142;5.364;2023-04-06T09:42:51;27.90;;;15.40;;
69594;SDS011;56800;52.142;5.364;2023-04-06T09:45:24;25.30;;;15.48;;
69594;SDS011;56800;52.142;5.364;2023-04-06T09:47:53;30.88;;;17.25;;
69594;SDS011;56800;52.142;5.364;2023-04-06T09:50:24;28.75;;;16.77;;
69594;SDS011;56800;52.142;5.364;2023-04-06T09:52:56;37.83;;;18.48;;
69594;SDS011;56800;52.142;5.364;2023-04-06T09:57:58;33.72;;;17.35;;
69594;SDS011;56800;52.142;5.364;2023-04-06T10:00:43;33.60;;;18.80;;
69594;SDS011;56800;52.142;5.364;2023-04-06T10:06:11;33.75;;;18.58;;
69594;SDS011;56800;52.142;5.364;2023-04-06T10:08:45;31.10;;;15.63;;
69594;SDS011;56800;52.142;5.364;2023-04-06T10:11:14;32.03;;;15.48;;
69594;SDS011;56800;52.142;5.364;2023-04-06T10:13:45;34.70;;;16.25;;
69594;SDS011;56800;52.142;5.364;2023-04-06T10:16:19;28.10;;;14.85;;
69594;SDS011;56800;52.142;5.364;2023-04-06T10:18:47;28.95;;;15.18;;
69594;SDS011;56800;52.142;5.364;2023-04-06T10:21:37;28.60;;;13.37;;
69594;SDS011;56800;52.142;5.364;2023-04-06T10:24:09;27.73;;;13.30;;
69594;SDS011;56800;52.142;5.364;2023-04-06T10:26:37;22.40;;;12.27;;
69594;SDS011;56800;52.142;5.364;2023-04-06T10:29:09;22.45;;;11.73;;
69594;SDS011;56800;52.142;5.364;2023-04-06T10:31:39;22.45;;;11.50;;
69594;SDS011;56800;52.142;5.364;2023-04-06T10:34:11;22.37;;;11.90;;
69594;SDS011;56800;52.142;5.364;2023-04-06T10:36:44;17.08;;;9.75;;
69594;SDS011;56800;52.142;5.364;2023-04-06T10:39:12;19.05;;;9.48;;
69594;SDS011;56800;52.142;5.364;2023-04-06T10:41:52;15.93;;;8.63;;
69594;SDS011;56800;52.142;5.364;2023-04-06T10:44:24;14.20;;;8.27;;
69594;SDS011;56800;52.142;5.364;2023-04-06T10:46:57;14.17;;;8.90;;
69594;SDS011;56800;52.142;5.364;2023-04-06T10:49:29;16.40;;;8.50;;
69594;SDS011;56800;52.142;5.364;2023-04-06T10:52:01;13.05;;;8.15;;
69594;SDS011;56800;52.142;5.364;2023-04-06T10:54:28;10.52;;;7.28;;
69594;SDS011;56800;52.142;5.364;2023-04-06T10:56:58;11.52;;;7.47;;
69594;SDS011;56800;52.142;5.364;2023-04-06T10:59:28;10.77;;;5.83;;
69594;SDS011;56800;52.142;5.364;2023-04-06T11:02:01;11.00;;;5.72;;
69594;SDS011;56800;52.142;5.364;2023-04-06T11:04:34;8.93;;;5.70;;
69594;SDS011;56800;52.142;5.364;2023-04-06T11:07:01;7.22;;;4.72;;
69594;SDS011;56800;52.142;5.364;2023-04-06T11:09:28;9.35;;;4.85;;
69594;SDS011;56800;52.142;5.364;2023-04-06T11:12:02;8.90;;;4.97;;
69594;SDS011;56800;52.142;5.364;2023-04-06T11:14:29;10.05;;;4.65;;
69594;SDS011;56800;52.142;5.364;2023-04-06T11:17:00;7.20;;;4.88;;
69594;SDS011;56800;52.142;5.364;2023-04-06T11:19:31;10.00;;;4.80;;
69594;SDS011;56800;52.142;5.364;2023-04-06T11:22:06;7.22;;;4.25;;
69594;SDS011;56800;52.142;5.364;2023-04-06T11:24:36;8.77;;;4.20;;
69594;SDS011;56800;52.142;5.364;2023-04-06T11:27:03;7.80;;;4.70;;
69594;SDS011;56800;52.142;5.364;2023-04-06T11:29:31;7.15;;;4.47;;
69594;SDS011;56800;52.142;5.364;2023-04-06T11:32:05;12.32;;;4.85;;
69594;SDS011;56800;52.142;5.364;2023-04-06T11:34:36;8.25;;;4.55;;
69594;SDS011;56800;52.142;5.364;2023-04-06T11:37:08;9.67;;;4.47;;
69594;SDS011;56800;52.142;5.364;2023-04-06T11:42:31;10.75;;;5.05;;
69594;SDS011;56800;52.142;5.364;2023-04-06T11:45:07;8.57;;;4.10;;
69594;SDS011;56800;52.142;5.364;2023-04-06T11:47:36;8.82;;;5.10;;
69594;SDS011;56800;52.142;5.364;2023-04-06T11:50:13;9.27;;;4.77;;
69594;SDS011;56800;52.142;5.364;2023-04-06T11:52:44;7.80;;;5.13;;
69594;SDS011;56800;52.142;5.364;2023-04-06T11:55:16;8.05;;;5.38;;
69594;SDS011;56800;52.142;5.364;2023-04-06T11:57:47;9.80;;;5.55;;
69594;SDS011;56800;52.142;5.364;2023-04-06T12:00:17;9.15;;;5.20;;
69594;SDS011;56800;52.142;5.364;2023-04-06T12:02:48;10.03;;;6.40;;
69594;SDS011;56800;52.142;5.364;2023-04-06T12:05:15;10.02;;;5.72;;
69594;SDS011;56800;52.142;5.364;2023-04-06T12:07:43;9.57;;;5.78;;
69594;SDS011;56800;52.142;5.364;2023-04-06T12:10:11;10.35;;;6.50;;
69594;SDS011;56800;52.142;5.364;2023-04-06T12:12:44;11.20;;;6.20;;
69594;SDS011;56800;52.142;5.364;2023-04-06T12:15:11;11.90;;;6.20;;
69594;SDS011;56800;52.142;5.364;2023-04-06T12:17:43;10.65;;;6.72;;
69594;SDS011;56800;52.142;5.364;2023-04-06T12:20:10;11.55;;;7.05;;
69594;SDS011;56800;52.142;5.364;2023-04-06T12:22:51;11.18;;;6.72;;
69594;SDS011;56800;52.142;5.364;2023-04-06T12:25:18;11.50;;;6.55;;
69594;SDS011;56800;52.142;5.364;2023-04-06T12:27:45;10.70;;;7.03;;
69594;SDS011;56800;52.142;5.364;2023-04-06T12:30:16;12.73;;;7.50;;
69594;SDS011;56800;52.142;5.364;2023-04-06T12:32:46;11.20;;;6.85;;
69594;SDS011;56800;52.142;5.364;2023-04-06T12:35:17;10.93;;;7.47;;
69594;SDS011;56800;52.142;5.364;2023-04-06T12:37:46;12.00;;;7.80;;
69594;SDS011;56800;52.142;5.364;2023-04-06T12:40:15;13.30;;;8.80;;
69594;SDS011;56800;52.142;5.364;2023-04-06T12:42:44;12.88;;;8.07;;
69594;SDS011;56800;52.142;5.364;2023-04-06T12:45:16;12.40;;;7.95;;
69594;SDS011;56800;52.142;5.364;2023-04-06T12:47:45;13.32;;;8.50;;
69594;SDS011;56800;52.142;5.364;2023-04-06T12:50:12;14.43;;;9.40;;
69594;SDS011;56800;52.142;5.364;2023-04-06T12:52:39;15.87;;;8.40;;
69594;SDS011;56800;52.142;5.364;2023-04-06T12:55:07;12.60;;;8.30;;
69594;SDS011;56800;52.142;5.364;2023-04-06T12:57:37;14.82;;;8.30;;
69594;SDS011;56800;52.142;5.364;2023-04-06T13:00:04;12.32;;;8.00;;
69594;SDS011;56800;52.142;5.364;2023-04-06T13:02:34;13.93;;;8.20;;
69594;SDS011;56800;52.142;5.364;2023-04-06T13:05:04;14.93;;;8.77;;
69594;SDS011;56800;52.142;5.364;2023-04-06T13:07:31;14.35;;;8.63;;
69594;SDS011;56800;52.142;5.364;2023-04-06T13:10:01;13.27;;;7.78;;
69594;SDS011;56800;52.142;5.364;2023-04-06T13:12:28;11.95;;;7.97;;
69594;SDS011;56800;52.142;5.364;2023-04-06T13:14:55;13.35;;;7.75;;
69594;SDS011;56800;52.142;5.364;2023-04-06T13:17:22;12.97;;;7.83;;
69594;SDS011;56800;52.142;5.364;2023-04-06T13:19:49;13.07;;;8.35;;
69594;SDS011;56800;52.142;5.364;2023-04-06T13:22:16;13.65;;;8.77;;
69594;SDS011;56800;52.142;5.364;2023-04-06T13:24:43;13.15;;;7.97;;
69594;SDS011;56800;52.142;5.364;2023-04-06T13:27:10;14.52;;;8.80;;
69594;SDS011;56800;52.142;5.364;2023-04-06T13:29:37;15.70;;;8.30;;
69594;SDS011;56800;52.142;5.364;2023-04-06T13:32:04;14.13;;;8.52;;
69594;SDS011;56800;52.142;5.364;2023-04-06T13:34:32;14.65;;;9.43;;
69594;SDS011;56800;52.142;5.364;2023-04-06T13:37:02;13.25;;;8.68;;
69594;SDS011;56800;52.142;5.364;2023-04-06T13:39:31;17.08;;;9.60;;
69594;SDS011;56800;52.142;5.364;2023-04-06T13:41:59;14.03;;;7.70;;
69594;SDS011;56800;52.142;5.364;2023-04-06T13:44:29;12.07;;;8.13;;
69594;SDS011;56800;52.142;5.364;2023-04-06T13:46:56;16.17;;;9.23;;
69594;SDS011;56800;52.142;5.364;2023-04-06T13:49:24;14.07;;;9.00;;
69594;SDS011;56800;52.142;5.364;2023-04-06T13:51:51;16.50;;;10.25;;
69594;SDS011;56800;52.142;5.364;2023-04-06T13:54:18;14.67;;;9.93;;
69594;SDS011;56800;52.142;5.364;2023-04-06T13:56:45;14.52;;;9.27;;
69594;SDS011;56800;52.142;5.364;2023-04-06T13:59:12;14.23;;;9.02;;
69594;SDS011;56800;52.142;5.364;2023-04-06T14:01:42;15.23;;;9.43;;
69594;SDS011;56800;52.142;5.364;2023-04-06T14:04:09;13.75;;;8.00;;
69594;SDS011;56800;52.142;5.364;2023-04-06T14:06:36;16.73;;;8.77;;
69594;SDS011;56800;52.142;5.364;2023-04-06T14:09:10;15.30;;;9.05;;
69594;SDS011;56800;52.142;5.364;2023-04-06T14:11:38;14.55;;;7.75;;
69594;SDS011;56800;52.142;5.364;2023-04-06T14:14:07;15.80;;;9.43;;
69594;SDS011;56800;52.142;5.364;2023-04-06T14:16:37;14.82;;;8.68;;
69594;SDS011;56800;52.142;5.364;2023-04-06T14:19:05;15.53;;;8.93;;
69594;SDS011;56800;52.142;5.364;2023-04-06T14:21:35;12.52;;;8.45;;
69594;SDS011;56800;52.142;5.364;2023-04-06T14:24:02;15.63;;;9.52;;
69594;SDS011;56800;52.142;5.364;2023-04-06T14:26:29;16.35;;;8.57;;
69594;SDS011;56800;52.142;5.364;2023-04-06T14:28:56;15.60;;;8.75;;
69594;SDS011;56800;52.142;5.364;2023-04-06T14:31:23;15.60;;;9.40;;
69594;SDS011;56800;52.142;5.364;2023-04-06T14:33:50;14.65;;;8.95;;
69594;SDS011;56800;52.142;5.364;2023-04-06T14:36:17;16.13;;;8.75;;
69594;SDS011;56800;52.142;5.364;2023-04-06T14:38:44;14.38;;;8.77;;
69594;SDS011;56800;52.142;5.364;2023-04-06T14:41:18;14.02;;;8.95;;
69594;SDS011;56800;52.142;5.364;2023-04-06T14:43:46;13.50;;;8.73;;
69594;SDS011;56800;52.142;5.364;2023-04-06T14:46:13;14.10;;;9.05;;
69594;SDS011;56800;52.142;5.364;2023-04-06T14:48:42;14.60;;;9.25;;
69594;SDS011;56800;52.142;5.364;2023-04-06T14:51:09;13.02;;;7.97;;